CA-0489 weather

CLOSED Willowdale Airfield
Toronto, Ontario, Canada

Public forecast

Using degrees Celsius for public forecast. Weather courtesy of forecast.io.

METAR (pilot weather report)

Closest report is Buttonville Municipal Airport, 6.3 nm (11.6 km) NNE. Retrieved 2018/11/22 10:00 UTC (21 minutes ago):

CYKZ 221000Z 33007KT 15SM SKC M15/M19 A3047 RMK SLP335

TAF (pilot weather forecast)

Closest forecast is Buttonville Municipal Airport, 6.3 nm (11.6 km) NNE. Retrieved 2018/11/22 06:39 UTC (4 hours ago):

TAF CYKZ 220538Z 2206/2218 34010KT P6SM SKC RMK NXT FCST BY 221200Z